Station Historical Data
Daily Summary for April 23, 2017 Units:  English    Metric   Both
« Previous Day
Next Day »
Daily Weekly Monthly Yearly Custom
  High: Low: Average:
Temperature: 63.4 °F 53.0 °F 59.6 °F
Dew Point: 61.3 °F 50.4 °F 57.2 °F
Humidity: 93% 89% 92%
Wind Speed: 1.0mph 0.0mph 0mph
Wind Gust: 5.0mph - -
Wind- - NW
Pressure: 29.89 in 29.75 in -
Precipitation: 1.91 in    
Historical Graphs
 
 
Tabular Data for April 23, 2017
Time Temperature Dew Point Pressure Wind Wind Speed Wind Gust Humidity Rainfall Rate (Hourly) Conditions
00:00 62.1 °F 58.8 °F 29.89 in Calm   1.0 mph 89% 0.01 in RA
00:15 61.5 °F 58.2 °F 29.87 in Calm   1.0 mph 89% 0.05 in SCT
00:30 61.1 °F 58.1 °F 29.87 in Calm   1.0 mph 90% 0.01 in RA
00:45 61.1 °F 58.4 °F 29.86 in Calm   1.0 mph 91% 0.02 in SCT
01:00 60.9 °F 58.3 °F 29.85 in Calm   1.0 mph 91% 0.01 in SCT
01:15 61.1 °F 58.7 °F 29.84 in Calm   1.0 mph 92% 0.01 in SCT
01:30 61.1 °F 58.8 °F 29.85 in Calm   1.0 mph 92% 0.01 in SCT
01:45 61.1 °F 58.8 °F 29.85 in Calm   1.0 mph 92% 0.00 in SCT
02:00 61.2 °F 58.9 °F 29.85 in Calm   1.0 mph 92% 0.00 in SCT
02:15 61.1 °F 58.8 °F 29.84 in Calm   2.0 mph 92% 0.00 in SCT
02:30 61.0 °F 58.7 °F 29.84 in Calm   1.0 mph 92% 0.00 in SCT
02:45 60.8 °F 58.5 °F 29.83 in Calm   2.0 mph 92% 0.00 in SCT
03:00 60.7 °F 58.4 °F 29.82 in Calm   1.0 mph 92% 0.00 in SCT
03:15 60.5 °F 58.2 °F 29.82 in Calm   1.0 mph 92% 0.00 in SCT
03:30 60.5 °F 58.2 °F 29.82 in Calm     92% 0.00 in SCT
03:45 60.5 °F 58.2 °F 29.82 in Calm     92% 0.00 in SCT
04:00 60.5 °F 58.2 °F 29.82 in Calm     92% 0.00 in SCT
04:15 60.5 °F 58.2 °F 29.82 in Calm     92% 0.00 in SCT
04:30 60.5 °F 58.2 °F 29.83 in Calm     92% 0.00 in SCT
04:45 60.5 °F 58.2 °F 29.83 in Calm     92% 0.00 in SCT
05:00 60.5 °F 58.2 °F 29.83 in Calm     92% 0.00 in SCT
05:15 60.5 °F 58.2 °F 29.82 in Calm     92% 0.00 in SCT
05:30 60.5 °F 58.2 °F 29.81 in Calm     92% 0.00 in SCT
05:45 60.5 °F 58.2 °F 29.81 in Calm     92% 0.00 in SCT
06:00 60.5 °F 58.2 °F 29.81 in Calm     92% 0.00 in SCT
06:15 60.5 °F 58.2 °F 29.81 in Calm     92% 0.00 in SCT
06:30 60.5 °F 58.2 °F 29.82 in Calm     92% 0.00 in SCT
06:45 60.5 °F 58.2 °F 29.83 in Calm     92% 0.00 in SCT
07:00 60.5 °F 58.2 °F 29.83 in Calm     92% 0.00 in SCT
07:15 60.5 °F 58.2 °F 29.83 in Calm     92% 0.00 in SCT
07:30 60.5 °F 58.2 °F 29.83 in Calm     92% 0.00 in SCT
07:45 60.5 °F 58.2 °F 29.83 in Calm     92% 0.00 in SCT
08:00 60.5 °F 58.2 °F 29.83 in Calm     92% 0.00 in SCT
08:15 60.5 °F 58.2 °F 29.83 in Calm     92% 0.00 in SCT
08:30 60.5 °F 58.2 °F 29.82 in Calm     92% 0.00 in SCT
08:45 60.9 °F 58.9 °F 29.83 in Calm   1.0 mph 93% 0.00 in SCT
09:00 61.0 °F 58.7 °F 29.83 in Calm   2.0 mph 92% 0.01 in SCT
09:15 60.9 °F 58.6 °F 29.83 in Calm   2.0 mph 92% 0.00 in SCT
09:30 60.9 °F 58.6 °F 29.83 in Calm   2.0 mph 92% 0.00 in SCT
09:45 60.9 °F 58.6 °F 29.83 in Calm   1.0 mph 92% 0.00 in SCT
10:00 60.9 °F 58.3 °F 29.83 in Calm   1.0 mph 91% 0.00 in SCT
10:15 60.8 °F 58.2 °F 29.83 in Calm   1.0 mph 91% 0.00 in SCT
10:30 61.0 °F 58.6 °F 29.82 in Calm   1.0 mph 92% 0.00 in SCT
10:45 61.6 °F 59.2 °F 29.82 in Calm   3.0 mph 92% 0.00 in SCT
11:00 61.6 °F 58.9 °F 29.81 in Calm   2.0 mph 91% 0.00 in SCT
11:15 61.4 °F 58.7 °F 29.81 in Calm   3.0 mph 91% 0.00 in SCT
11:30 61.4 °F 59.0 °F 29.81 in Calm   3.0 mph 92% 0.01 in SCT
11:45 61.5 °F 59.2 °F 29.81 in Calm   2.0 mph 92% 0.01 in SCT
12:00 61.7 °F 59.3 °F 29.80 in Calm   2.0 mph 92% 0.00 in SCT
12:15 62.1 °F 59.7 °F 29.79 in Calm   1.0 mph 92% 0.00 in SCT
12:30 62.2 °F 59.9 °F 29.79 in Calm   1.0 mph 92% 0.00 in SCT
12:45 62.3 °F 60.0 °F 29.79 in Calm   1.0 mph 92% 0.00 in SCT
13:00 62.9 °F 60.5 °F 29.78 in Calm   2.0 mph 92% 0.00 in SCT
13:15 63.2 °F 60.8 °F 29.77 in Calm   1.0 mph 92% 0.00 in SCT
13:30 63.2 °F 60.8 °F 29.77 in Calm   1.0 mph 92% 0.00 in SCT
13:45 63.1 °F 60.7 °F 29.76 in Calm   2.0 mph 92% 0.01 in SCT
14:00 63.2 °F 60.8 °F 29.75 in Calm   1.0 mph 92% 0.00 in SCT
14:15 63.4 °F 61.3 °F 29.75 in NW 1.0 mph 3.0 mph 93% 0.02 in RA
14:30 63.0 °F 60.6 °F 29.76 in Calm   2.0 mph 92% 0.25 in RA
14:45 61.5 °F 59.1 °F 29.77 in Calm   2.0 mph 92% 0.71 in RA
15:00 60.7 °F 58.4 °F 29.76 in Calm   5.0 mph 92% 0.15 in SCT
15:15 60.2 °F 57.9 °F 29.76 in Calm   2.0 mph 92% 0.06 in RA
15:30 60.5 °F 58.5 °F 29.76 in Calm   2.0 mph 93% 0.11 in SCT
15:45 60.8 °F 58.8 °F 29.76 in Calm   3.0 mph 93% 0.03 in SCT
16:00 60.8 °F 58.8 °F 29.75 in Calm     93% 0.02 in SCT
16:15 61.0 °F 59.0 °F 29.75 in Calm   1.0 mph 93% 0.02 in SCT
16:30 61.1 °F 59.1 °F 29.75 in Calm     93% 0.02 in SCT
16:45 61.1 °F 59.1 °F 29.76 in Calm   1.0 mph 93% 0.01 in SCT
17:00 60.8 °F 58.4 °F 29.77 in Calm   1.0 mph 92% 0.01 in SCT
17:15 60.5 °F 58.5 °F 29.77 in Calm     93% 0.07 in RA
17:30 60.5 °F 58.5 °F 29.76 in Calm     93% 0.17 in RA
17:45 60.8 °F 58.7 °F 29.77 in Calm     93% 0.04 in SCT
18:00 60.7 °F 58.7 °F 29.77 in Calm     93% 0.01 in SCT
18:15 60.8 °F 58.4 °F 29.77 in Calm   3.0 mph 92% 0.02 in SCT
18:30 58.8 °F 56.1 °F 29.78 in Calm   3.0 mph 91% 0.01 in RA
18:45 57.6 °F 54.7 °F 29.78 in Calm   2.0 mph 90% 0.00 in SCT
19:00 56.7 °F 54.1 °F 29.78 in Calm   2.0 mph 91% 0.00 in SCT
19:15 56.2 °F 53.6 °F 29.78 in Calm   1.0 mph 91% 0.00 in SCT
19:30 55.5 °F 52.9 °F 29.78 in Calm   2.0 mph 91% 0.00 in SCT
19:45 55.3 °F 53.0 °F 29.79 in Calm   1.0 mph 92% 0.00 in SCT
20:00 55.2 °F 52.9 °F 29.80 in Calm   1.0 mph 92% 0.00 in SCT
20:15 54.7 °F 52.4 °F 29.80 in Calm   1.0 mph 92% 0.00 in SCT
20:30 54.3 °F 51.7 °F 29.80 in Calm   2.0 mph 91% 0.00 in SCT
20:45 53.9 °F 51.3 °F 29.80 in Calm   1.0 mph 91% 0.00 in SCT
21:00 53.7 °F 51.1 °F 29.81 in Calm   2.0 mph 91% 0.00 in SCT
21:15 53.5 °F 50.9 °F 29.82 in Calm   1.0 mph 91% 0.00 in SCT
21:30 53.5 °F 51.2 °F 29.83 in Calm   1.0 mph 92% 0.00 in SCT
21:45 53.0 °F 50.4 °F 29.83 in Calm     91% 0.00 in SCT
22:00 53.0 °F 50.4 °F 29.83 in Calm     91% 0.00 in SCT
22:15 53.0 °F 50.4 °F 29.83 in Calm     91% 0.00 in SCT
22:30 53.0 °F 50.4 °F 29.83 in Calm     91% 0.00 in SCT
22:45 53.0 °F 50.4 °F 29.83 in Calm     91% 0.00 in SCT
23:00 53.0 °F 50.4 °F 29.83 in Calm     91% 0.00 in SCT
23:15 53.0 °F 50.4 °F 29.83 in Calm     91% 0.00 in SCT
23:30 53.0 °F 50.4 °F 29.83 in Calm     91% 0.00 in SCT
23:45 53.0 °F 50.4 °F 29.83 in Calm     91% 0.00 in SCT
Piedmont Bend
Compliments of Weather Underground - 2 mb